Time;durP1;ratioP1;P1;durP2;ratioP2;P2;SDS_P1;SDS_P2;PMS_P1;PMS_P2;Temp;Humidity;BMP_temperature;BMP_pressure;BME280_temperature;BME280_humidity;BME280_pressure;Samples;Min_cycle;Max_cycle;Signal;HPM_P1;HPM_P2
2022/07/30 00:01:15;;;;;;;5.10;4.60;;;;;;;17.10;100.00;100943.47;4894469;29;20468;-83
2022/07/30 00:03:41;;;;;;;4.78;4.38;;;;;;;17.09;100.00;100933.81;4891272;29;20076;-86
2022/07/30 00:06:14;;;;;;;5.40;4.68;;;;;;;17.11;100.00;100937.28;4872023;29;20041;-83
2022/07/30 00:08:44;;;;;;;5.57;4.35;;;;;;;17.12;100.00;100931.06;4891774;29;20485;-82
2022/07/30 00:11:10;;;;;;;5.22;3.60;;;;;;;17.13;100.00;100936.31;4912974;29;20045;-82
2022/07/30 00:13:42;;;;;;;6.05;3.97;;;;;;;17.15;100.00;100934.47;4896613;29;20044;-85
2022/07/30 00:16:08;;;;;;;5.30;4.47;;;;;;;17.15;100.00;100934.47;4880666;29;20076;-84
2022/07/30 00:18:38;;;;;;;5.45;4.95;;;;;;;17.15;100.00;100933.63;4877733;29;20674;-84
2022/07/30 00:21:07;;;;;;;8.10;5.25;;;;;;;17.15;100.00;100925.69;4891139;29;20198;-90
2022/07/30 00:23:34;;;;;;;11.43;5.13;;;;;;;17.14;100.00;100926.59;4893960;29;20123;-85
2022/07/30 00:26:03;;;;;;;5.45;4.75;;;;;;;17.13;100.00;100925.72;4858438;29;20040;-84
2022/07/30 00:28:32;;;;;;;5.32;4.70;;;;;;;17.10;100.00;100917.03;4896098;29;20128;-88
2022/07/30 00:30:59;;;;;;;5.93;4.93;;;;;;;17.07;100.00;100918.00;4911152;29;20040;-84
2022/07/30 00:33:33;;;;;;;5.35;4.85;;;;;;;17.06;100.00;100920.69;4907351;29;20104;-85
2022/07/30 00:36:00;;;;;;;6.18;5.05;;;;;;;17.02;100.00;100923.41;4888942;29;20402;-83
2022/07/30 00:38:27;;;;;;;6.05;5.40;;;;;;;17.02;100.00;100909.34;4896979;29;20040;-81
2022/07/30 00:40:54;;;;;;;6.18;4.32;;;;;;;17.03;100.00;100911.06;4898684;29;20052;-82
2022/07/30 00:43:25;;;;;;;5.13;4.63;;;;;;;17.03;100.00;100917.22;4883850;29;20076;-85
2022/07/30 00:45:54;;;;;;;5.25;4.72;;;;;;;17.03;100.00;100914.56;4889078;29;20047;-83
2022/07/30 00:48:23;;;;;;;7.07;4.90;;;;;;;17.03;100.00;100917.22;4896361;29;20056;-82
2022/07/30 00:50:52;;;;;;;5.93;5.15;;;;;;;17.05;100.00;100900.44;4894893;29;20059;-84
2022/07/30 00:53:21;;;;;;;5.68;4.72;;;;;;;17.04;100.00;100896.94;4891662;29;20116;-83
2022/07/30 00:55:57;;;;;;;6.22;4.80;;;;;;;17.09;100.00;100899.41;4883549;29;20048;-89
2022/07/30 00:58:23;;;;;;;5.47;4.97;;;;;;;17.08;100.00;100898.56;4882109;29;20368;-86
2022/07/30 01:00:50;;;;;;;5.72;4.50;;;;;;;17.08;100.00;100897.69;4895500;29;20492;-85
2022/07/30 01:03:16;;;;;;;6.05;4.47;;;;;;;17.06;100.00;100900.38;4880297;29;20475;-83
2022/07/30 01:05:43;;;;;;;5.28;4.05;;;;;;;17.03;100.00;100888.13;4897402;29;20052;-84
2022/07/30 01:08:10;;;;;;;5.35;4.85;;;;;;;17.03;100.00;100900.50;4895372;29;20540;-82
2022/07/30 01:10:38;;;;;;;4.95;4.45;;;;;;;17.01;100.00;100897.00;4892239;29;20052;-84
2022/07/30 01:13:14;;;;;;;5.45;3.92;;;;;;;17.05;100.00;100895.16;4893690;29;20449;-85
2022/07/30 01:15:41;;;;;;;4.13;3.83;;;;;;;17.03;100.00;100887.25;4893712;29;20040;-84
2022/07/30 01:18:12;;;;;;;5.85;3.58;;;;;;;17.02;100.00;100882.88;4880277;29;20058;-82
2022/07/30 01:21:10;;;;;;;5.35;4.95;;;;;;;16.99;100.00;100881.19;4888371;29;20045;-83
2022/07/30 01:23:43;;;;;;;6.30;5.00;;;;;;;16.96;100.00;100878.66;4893459;29;20120;-83
2022/07/30 01:26:14;;;;;;;5.47;4.38;;;;;;;16.95;100.00;100890.16;4894591;29;20072;-84
2022/07/30 01:28:53;;;;;;;6.03;5.00;;;;;;;16.97;100.00;100895.38;4891812;29;20049;-82
2022/07/30 01:31:24;;;;;;;4.65;4.25;;;;;;;16.95;100.00;100897.22;4892507;29;20052;-83
2022/07/30 01:33:51;;;;;;;5.13;4.47;;;;;;;16.91;100.00;100900.88;4888975;29;20128;-82
2022/07/30 01:36:22;;;;;;;5.97;4.18;;;;;;;16.91;100.00;100900.88;4894282;29;20107;-81
2022/07/30 01:38:51;;;;;;;5.22;4.72;;;;;;;16.89;100.00;100914.09;4885816;29;20059;-83
2022/07/30 01:41:23;;;;;;;5.35;4.82;;;;;;;16.89;100.00;100911.47;4888220;29;20476;-82
2022/07/30 01:43:51;;;;;;;5.15;3.90;;;;;;;16.87;100.00;100905.38;4859194;29;20041;-83
2022/07/30 01:46:19;;;;;;;5.15;4.07;;;;;;;16.88;100.00;100896.50;4889903;29;20399;-84
2022/07/30 01:48:46;;;;;;;4.97;3.60;;;;;;;16.87;100.00;100898.28;4894464;29;20059;-84
2022/07/30 01:51:14;;;;;;;4.78;4.07;;;;;;;16.88;100.00;100896.50;4887417;29;20076;-85
2022/07/30 01:53:51;;;;;;;8.15;4.15;;;;;;;16.87;100.00;100906.22;4891146;29;20044;-83
2022/07/30 01:56:21;;;;;;;5.55;3.83;;;;;;;16.86;100.00;100908.91;4890430;29;20044;-83
2022/07/30 01:58:52;;;;;;;8.43;4.10;;;;;;;16.84;100.00;100903.69;4891760;29;20040;-86
2022/07/30 02:01:20;;;;;;;5.68;3.67;;;;;;;16.86;100.00;100907.13;4895959;29;20535;-83
2022/07/30 02:04:00;;;;;;;6.05;4.72;;;;;;;16.87;100.00;100910.66;4892109;29;20049;-83
2022/07/30 02:06:39;;;;;;;6.15;4.72;;;;;;;16.84;100.00;100900.16;4897105;29;20380;-83
2022/07/30 02:09:07;;;;;;;4.43;3.58;;;;;;;16.84;100.00;100916.03;4894390;29;20408;-84
2022/07/30 02:14:44;;;;;;;4.32;4.03;;;;;;;16.84;100.00;100913.38;4898215;29;20033;-83
2022/07/30 02:17:17;;;;;;;5.78;4.97;;;;;;;16.85;100.00;100918.63;4897626;29;20522;-83
2022/07/30 02:19:45;;;;;;;5.78;4.35;;;;;;;16.87;100.00;100919.44;4899432;29;20051;-86
2022/07/30 02:22:14;;;;;;;5.88;5.00;;;;;;;16.88;100.00;100928.22;4913673;29;20056;-88
2022/07/30 02:24:43;;;;;;;5.43;4.93;;;;;;;16.86;100.00;100930.06;4900513;29;20052;-83
2022/07/30 02:27:18;;;;;;;6.88;5.03;;;;;;;16.84;100.00;100924.84;4889608;29;20053;-83
2022/07/30 02:29:47;;;;;;;5.30;4.57;;;;;;;16.82;100.00;100936.38;4881892;29;20102;-83
2022/07/30 02:32:18;;;;;;;5.60;5.05;;;;;;;16.82;100.00;100934.59;4895912;29;20053;-83
2022/07/30 02:34:48;;;;;;;6.43;4.93;;;;;;;16.82;100.00;100934.59;4883303;29;20049;-87
2022/07/30 02:37:17;;;;;;;6.10;3.92;;;;;;;16.84;100.00;100937.19;4894265;29;20056;-84
2022/07/30 02:39:44;;;;;;;5.22;4.72;;;;;;;16.82;100.00;100933.72;4912749;29;20047;-83
2022/07/30 02:42:15;;;;;;;6.03;4.72;;;;;;;16.82;100.00;100942.50;4888396;29;20041;-83
2022/07/30 02:44:45;;;;;;;5.47;4.90;;;;;;;16.81;100.00;100937.28;4877519;29;20056;-83
2022/07/30 02:47:16;;;;;;;4.70;4.32;;;;;;;16.81;100.00;100943.41;4894724;29;20480;-86
2022/07/30 02:49:46;;;;;;;7.47;6.78;;;;;;;16.83;100.00;100956.59;4896466;29;20302;-85
2022/07/30 02:52:16;;;;;;;5.78;5.22;;;;;;;16.80;100.00;100952.25;4894963;29;20136;-83
2022/07/30 02:54:44;;;;;;;4.90;4.50;;;;;;;16.82;100.00;100952.25;4890636;29;20049;-85
2022/07/30 02:57:12;;;;;;;8.10;5.10;;;;;;;16.85;100.00;100954.78;4893448;29;20619;-84
2022/07/30 02:59:44;;;;;;;7.57;6.00;;;;;;;16.86;100.00;100956.53;4893548;29;20052;-87
2022/07/30 03:02:12;;;;;;;5.25;4.68;;;;;;;16.85;100.00;100960.91;4893414;29;20045;-84
2022/07/30 03:04:43;;;;;;;7.53;5.38;;;;;;;16.85;100.00;100962.72;4885590;29;20093;-85
2022/07/30 03:07:11;;;;;;;6.25;5.65;;;;;;;16.82;100.00;100963.66;4878150;29;20108;-84
2022/07/30 03:09:42;;;;;;;8.60;7.05;;;;;;;16.81;100.00;100969.84;4894402;29;20068;-87
2022/07/30 03:12:12;;;;;;;6.35;5.07;;;;;;;16.79;100.00;100965.53;4895515;29;20052;-83
2022/07/30 03:14:42;;;;;;;6.15;5.57;;;;;;;16.78;100.00;100969.97;4889479;29;20049;-87
2022/07/30 03:17:10;;;;;;;9.55;6.00;;;;;;;16.79;100.00;100969.06;4888490;29;20054;-83
2022/07/30 03:19:38;;;;;;;10.48;5.72;;;;;;;16.78;100.00;100967.31;4881428;29;20175;-84
2022/07/30 03:22:08;;;;;;;11.32;6.60;;;;;;;16.77;100.00;100970.88;4880997;29;20143;-83
2022/07/30 03:24:36;;;;;;;6.72;6.13;;;;;;;16.75;100.00;100971.81;4892322;29;20072;-85
2022/07/30 03:27:07;;;;;;;6.50;5.90;;;;;;;16.73;100.00;100971.88;4871490;29;20056;-85
2022/07/30 03:29:35;;;;;;;7.15;5.82;;;;;;;16.70;100.00;100979.91;4890697;29;20040;-81
2022/07/30 03:32:05;;;;;;;8.35;6.15;;;;;;;16.68;100.00;100977.28;4880880;29;20041;-83
2022/07/30 03:34:41;;;;;;;5.80;5.05;;;;;;;16.66;100.00;100980.88;4890951;29;20104;-84
2022/07/30 03:37:09;;;;;;;8.52;5.90;;;;;;;16.62;100.00;100980.13;4896281;29;20745;-83
2022/07/30 03:39:36;;;;;;;6.50;5.88;;;;;;;16.59;100.00;100984.63;4880893;29;20393;-85
2022/07/30 03:42:08;;;;;;;9.35;5.93;;;;;;;16.59;100.00;100982.84;4877491;29;20132;-86
2022/07/30 03:44:47;;;;;;;;;;;;;;;;;;;;;
2022/07/30 03:47:15;;;;;;;5.55;4.97;;;;;;;16.62;100.00;100997.75;4896610;29;20056;-84
2022/07/30 03:49:44;;;;;;;5.53;4.20;;;;;;;16.61;100.00;100998.66;4880814;29;20055;-85
2022/07/30 03:52:11;;;;;;;8.18;5.07;;;;;;;16.58;100.00;100998.75;4891873;29;20132;-86
2022/07/30 03:54:41;;;;;;;4.97;4.53;;;;;;;16.55;100.00;101002.34;4892786;29;20044;-85
2022/07/30 03:57:08;;;;;;;6.53;5.30;;;;;;;16.53;100.00;101009.44;4891109;29;20052;-88
2022/07/30 03:59:41;;;;;;;5.28;4.78;;;;;;;16.51;100.00;101011.28;4891008;29;20048;-85
2022/07/30 04:02:11;;;;;;;7.03;6.07;;;;;;;16.51;100.00;101008.63;4892183;29;20048;-85
2022/07/30 04:04:43;;;;;;;5.68;5.10;;;;;;;16.49;100.00;101010.44;4892838;29;20048;-89
2022/07/30 04:07:12;;;;;;;6.40;5.25;;;;;;;16.46;100.00;101016.66;4877304;29;20063;-84
2022/07/30 04:09:40;;;;;;;7.25;5.78;;;;;;;16.41;100.00;101015.94;4895460;29;20075;-85
2022/07/30 04:12:07;;;;;;;7.35;6.60;;;;;;;16.38;100.00;101027.44;4885339;29;20049;-90
2022/07/30 04:17:49;;;;;;;5.32;4.93;;;;;;;16.27;100.00;101026.91;4898365;29;20670;-85
2022/07/30 04:20:23;;;;;;;4.68;3.95;;;;;;;16.25;100.00;101028.69;4892900;29;20118;-83
2022/07/30 04:22:51;;;;;;;7.40;5.60;;;;;;;16.25;100.00;101027.84;4873713;29;20212;-83
2022/07/30 04:25:18;;;;;;;7.18;5.47;;;;;;;16.27;100.00;101044.50;4895519;29;20044;-83
2022/07/30 04:27:45;;;;;;;5.53;5.03;;;;;;;16.28;100.00;101048.88;4885158;29;20052;-86
2022/07/30 04:30:12;;;;;;;6.70;4.93;;;;;;;16.27;100.00;101052.44;4891183;29;20048;-83
2022/07/30 04:32:40;;;;;;;6.15;5.65;;;;;;;16.27;100.00;101060.34;4893315;29;20045;-83
2022/07/30 04:35:07;;;;;;;11.50;6.40;;;;;;;16.21;100.00;101064.88;4897208;29;20139;-82
2022/07/30 04:37:34;;;;;;;7.45;6.18;;;;;;;16.18;100.00;101061.47;4877142;29;20056;-86
2022/07/30 04:40:00;;;;;;;6.90;6.25;;;;;;;16.12;100.00;101067.75;4883558;29;20058;-84
2022/07/30 04:42:33;;;;;;;7.43;6.07;;;;;;;16.14;100.00;101073.00;4892823;29;20044;-84
2022/07/30 04:45:19;;;;;;;7.80;6.38;;;;;;;16.15;100.00;101073.00;4875351;29;20079;-85
2022/07/30 04:47:46;;;;;;;6.97;6.38;;;;;;;16.14;100.00;101073.88;4887243;29;20080;-85
2022/07/30 04:50:15;;;;;;;9.05;6.32;;;;;;;16.13;100.00;101077.44;4890777;29;20051;-84
2022/07/30 04:52:43;;;;;;;8.43;6.45;;;;;;;16.10;100.00;101074.88;4891991;29;20484;-88
2022/07/30 04:55:12;;;;;;;6.75;5.78;;;;;;;16.09;100.00;101080.16;4876669;29;20071;-85
2022/07/30 04:57:41;;;;;;;14.70;7.22;;;;;;;16.06;100.00;101082.91;4889414;29;20044;-86
2022/07/30 05:00:09;;;;;;;8.35;6.18;;;;;;;16.05;100.00;101087.31;4894463;29;20047;-84
2022/07/30 05:02:40;;;;;;;7.85;6.55;;;;;;;16.04;100.00;101086.44;4893839;29;20079;-87
2022/07/30 05:05:12;;;;;;;8.93;6.15;;;;;;;16.06;100.00;101083.78;4877579;29;20049;-84
2022/07/30 05:07:39;;;;;;;7.18;6.47;;;;;;;16.08;100.00;101081.09;4884892;29;20045;-88
2022/07/30 05:10:07;;;;;;;6.93;6.20;;;;;;;16.10;100.00;101093.38;4884355;29;20048;-84
2022/07/30 05:12:37;;;;;;;10.38;7.15;;;;;;;16.06;100.00;101085.53;4897804;29;20071;-83
2022/07/30 05:15:09;;;;;;;7.68;6.95;;;;;;;16.06;100.00;101089.06;4896400;29;20037;-83
2022/07/30 05:17:36;;;;;;;8.18;6.10;;;;;;;16.08;100.00;101081.09;4899485;29;20064;-82
2022/07/30 05:20:03;;;;;;;8.63;6.70;;;;;;;16.08;100.00;101079.31;4897608;29;20055;-83
2022/07/30 05:22:30;;;;;;;7.60;6.13;;;;;;;16.10;100.00;101072.25;4901302;29;20044;-85
2022/07/30 05:24:58;;;;;;;11.07;7.45;;;;;;;16.11;100.00;101068.66;4909951;29;20041;-85
2022/07/30 05:27:25;;;;;;;8.98;7.03;;;;;;;16.09;100.00;101070.50;4909146;29;20136;-83
2022/07/30 05:29:53;;;;;;;7.70;6.65;;;;;;;16.07;100.00;101072.28;4902328;29;20040;-83
2022/07/30 05:32:20;;;;;;;7.53;6.60;;;;;;;16.03;100.00;101075.91;4874430;29;20049;-83
2022/07/30 05:34:47;;;;;;;8.15;7.43;;;;;;;16.00;100.00;101068.94;4877193;29;20135;-82
2022/07/30 05:37:16;;;;;;;8.88;8.00;;;;;;;16.00;100.00;101070.72;4890435;29;20084;-84
2022/07/30 05:39:48;;;;;;;9.50;7.22;;;;;;;15.92;100.00;101062.13;4880010;29;20055;-84
2022/07/30 05:42:15;;;;;;;9.32;6.72;;;;;;;15.88;100.00;101061.34;4877388;29;20060;-85
2022/07/30 05:44:41;;;;;;;10.82;6.72;;;;;;;15.82;100.00;101054.41;4889614;29;20042;-86
2022/07/30 05:47:08;;;;;;;8.50;7.03;;;;;;;15.80;100.00;101050.94;4890949;29;20040;-84
2022/07/30 05:49:36;;;;;;;9.07;7.30;;;;;;;15.81;100.00;101041.25;4888441;29;20075;-86
2022/07/30 05:52:05;;;;;;;7.82;7.03;;;;;;;15.81;100.00;101046.53;4897124;29;20508;-83
2022/07/30 05:54:34;;;;;;;7.78;7.03;;;;;;;15.81;100.00;101046.53;4875736;29;20044;-86
2022/07/30 05:57:03;;;;;;;7.85;6.97;;;;;;;15.81;100.00;101041.25;4878116;29;20051;-81
2022/07/30 05:59:38;;;;;;;10.57;6.75;;;;;;;15.81;100.00;101050.06;4895408;29;20049;-81
2022/07/30 06:02:05;;;;;;;8.55;7.43;;;;;;;15.83;100.00;101042.97;4879218;29;20500;-88
2022/07/30 06:04:34;;;;;;;8.15;7.35;;;;;;;15.86;100.00;101036.75;4897252;29;20049;-84
2022/07/30 06:07:01;;;;;;;9.48;7.47;;;;;;;15.91;100.00;101039.28;4902393;29;20056;-83
2022/07/30 06:09:31;;;;;;;11.00;7.32;;;;;;;15.95;100.00;101035.66;4897029;29;20083;-83
2022/07/30 06:12:01;;;;;;;9.07;6.72;;;;;;;15.97;100.00;101034.72;4890801;29;20070;-84
2022/07/30 06:14:27;;;;;;;8.88;6.00;;;;;;;16.00;100.00;101028.47;4874720;29;20461;-86
2022/07/30 06:16:54;;;;;;;8.65;6.60;;;;;;;16.00;100.00;101026.69;4894902;29;20072;-87
2022/07/30 06:19:21;;;;;;;6.15;5.53;;;;;;;16.03;100.00;101024.00;4900627;29;20055;-87
2022/07/30 06:21:48;;;;;;;10.45;7.10;;;;;;;16.11;100.00;101023.78;4872340;29;20068;-86
2022/07/30 06:24:15;;;;;;;6.88;5.88;;;;;;;16.18;100.00;101021.84;4901513;29;20049;-84
2022/07/30 06:26:42;;;;;;;8.55;6.35;;;;;;;16.28;100.00;101025.09;4895005;29;20362;-87
2022/07/30 06:29:08;;;;;;;5.63;5.10;;;;;;;16.38;100.00;101026.59;4870812;29;20445;-84
2022/07/30 06:31:40;;;;;;;5.30;4.90;;;;;;;16.50;100.00;101022.75;4895643;29;20049;-83
2022/07/30 06:34:18;;;;;;;4.28;3.97;;;;;;;16.63;100.00;101024.13;4893464;29;20045;-83
2022/07/30 06:36:48;;;;;;;7.50;5.63;;;;;;;16.75;100.00;101025.59;4911942;29;20045;-86
2022/07/30 06:39:15;;;;;;;4.97;4.45;;;;;;;16.89;100.00;101026.94;4879428;29;20420;-82
2022/07/30 06:41:42;;;;;;;5.45;4.90;;;;;;;17.00;100.00;101036.34;4888515;29;20051;-86
2022/07/30 06:44:09;;;;;;;5.40;4.90;;;;;;;17.15;100.00;101031.50;4885427;29;20072;-83
2022/07/30 06:46:36;;;;;;;5.20;4.15;;;;;;;17.26;100.00;101033.78;4890730;29;20329;-84
2022/07/30 06:49:03;;;;;;;4.75;4.35;;;;;;;17.40;100.00;101036.88;4896993;29;20550;-85
2022/07/30 06:51:30;;;;;;;6.97;6.28;;;;;;;17.53;100.00;101035.59;4864085;29;20051;-84
2022/07/30 06:53:57;;;;;;;5.82;5.32;;;;;;;17.65;100.00;101039.63;4897535;29;20056;-86
2022/07/30 06:56:23;;;;;;;5.15;4.75;;;;;;;17.77;100.00;101035.72;4887337;29;20507;-85
2022/07/30 06:58:51;;;;;;;4.55;4.15;;;;;;;17.91;100.00;101035.22;4880278;29;20115;-85
2022/07/30 07:01:20;;;;;;;4.32;4.03;;;;;;;18.04;100.00;101035.72;4896052;29;20056;-83
2022/07/30 07:03:46;;;;;;;5.63;4.53;;;;;;;18.17;100.00;101033.53;4894222;29;20044;-84
2022/07/30 07:06:13;;;;;;;6.72;4.85;;;;;;;18.30;100.00;101040.16;4906151;29;20444;-84
2022/07/30 07:08:42;;;;;;;5.80;4.13;;;;;;;18.39;100.00;101036.28;4895028;29;20049;-86
2022/07/30 07:11:10;;;;;;;6.13;4.15;;;;;;;18.48;99.92;101043.91;4894744;29;20071;-85
2022/07/30 07:13:43;;;;;;;5.15;4.15;;;;;;;18.62;99.42;101042.56;4894417;29;20049;-86
2022/07/30 07:18:54;;;;;;;4.60;3.60;;;;;;;18.84;98.67;101046.16;4886069;29;20041;-86
2022/07/30 07:21:22;;;;;;;9.65;3.97;;;;;;;18.98;96.99;101050.09;4879778;29;20049;-84
2022/07/30 07:23:49;;;;;;;6.95;3.85;;;;;;;19.05;96.68;101054.25;4895424;29;20048;-85
2022/07/30 07:26:16;;;;;;;4.07;3.67;;;;;;;19.20;96.27;101051.94;4893106;29;20055;-83
2022/07/30 07:28:44;;;;;;;5.70;4.57;;;;;;;19.32;95.14;101046.13;4896467;29;20464;-84
2022/07/30 07:31:11;;;;;;;4.88;3.20;;;;;;;19.48;94.60;101049.91;4896299;29;20044;-84
2022/07/30 07:33:39;;;;;;;4.38;3.92;;;;;;;19.72;94.30;101039.22;4880250;29;20051;-84
2022/07/30 07:36:06;;;;;;;4.43;3.55;;;;;;;20.06;92.83;101044.97;4879759;29;20072;-85
2022/07/30 07:38:35;;;;;;;3.78;3.38;;;;;;;20.42;89.82;101039.00;4896191;29;20044;-84
2022/07/30 07:41:01;;;;;;;7.28;4.35;;;;;;;20.73;87.21;101033.19;4876087;29;20044;-83
2022/07/30 07:46:11;;;;;;;6.30;3.95;;;;;;;21.38;83.19;101039.94;4896670;29;20380;-86
2022/07/30 07:48:40;;;;;;;3.00;2.80;;;;;;;21.81;80.85;101038.75;4892858;29;20489;-83
2022/07/30 07:51:07;;;;;;;3.38;3.08;;;;;;;22.34;77.74;101037.88;4896423;29;20040;-90
2022/07/30 07:53:35;;;;;;;4.07;3.15;;;;;;;22.95;75.15;101037.28;4897227;29;20131;-84
2022/07/30 07:56:02;;;;;;;3.95;2.42;;;;;;;23.54;72.59;101041.19;4910433;29;20056;-90
2022/07/30 07:58:29;;;;;;;4.65;3.30;;;;;;;24.04;68.51;101037.41;4906956;29;20282;-82
2022/07/30 08:00:55;;;;;;;2.08;1.98;;;;;;;24.16;66.74;101032.25;4892109;29;20049;-85
2022/07/30 08:03:22;;;;;;;2.08;1.83;;;;;;;23.99;66.76;101031.47;4891547;29;20067;-87
2022/07/30 08:05:48;;;;;;;2.47;2.38;;;;;;;23.51;66.59;101039.56;4884301;29;20045;-87
2022/07/30 08:08:15;;;;;;;2.65;2.40;;;;;;;23.37;66.90;101023.47;4881029;29;20077;-83
2022/07/30 08:10:43;;;;;;;2.78;2.67;;;;;;;23.50;65.50;101013.78;4896939;29;20051;-87
2022/07/30 08:13:09;;;;;;;3.35;2.40;;;;;;;23.26;65.39;101019.59;4873331;29;20136;-84
2022/07/30 08:15:36;;;;;;;2.22;2.13;;;;;;;23.08;65.62;101009.91;4898745;29;20048;-84
2022/07/30 08:18:02;;;;;;;2.80;2.05;;;;;;;23.09;65.73;101020.50;4908699;29;20123;-86
2022/07/30 08:20:29;;;;;;;2.38;2.28;;;;;;;23.52;64.39;101019.91;4900146;29;20123;-84
2022/07/30 08:22:55;;;;;;;2.70;2.08;;;;;;;24.32;62.27;101017.00;4888207;29;20056;-83
2022/07/30 08:25:22;;;;;;;2.67;2.38;;;;;;;25.09;60.31;101006.00;4892961;29;20134;-83
2022/07/30 08:27:50;;;;;;;2.00;1.90;;;;;;;25.37;57.32;100997.06;4907367;29;20041;-87
2022/07/30 08:30:16;;;;;;;2.03;1.92;;;;;;;25.31;57.22;101002.78;4908695;29;20045;-85
2022/07/30 08:32:45;;;;;;;5.03;2.60;;;;;;;25.48;57.21;101004.38;4899075;29;20365;-86
2022/07/30 08:35:12;;;;;;;1.58;1.33;;;;;;;26.17;55.76;101004.22;4897095;29;20052;-82
2022/07/30 08:37:41;;;;;;;1.67;1.58;;;;;;;26.86;53.70;101006.56;4896361;29;20208;-81
2022/07/30 08:40:10;;;;;;;1.60;1.50;;;;;;;27.20;52.67;101000.56;4901918;29;20072;-83
2022/07/30 08:42:38;;;;;;;1.40;1.30;;;;;;;27.29;52.42;101004.41;4893626;29;20045;-84
2022/07/30 08:45:06;;;;;;;2.00;1.80;;;;;;;27.08;51.56;101007.69;4881139;29;20052;-87
2022/07/30 08:47:34;;;;;;;1.27;1.17;;;;;;;26.94;51.21;101006.00;4896946;29;20080;-82
2022/07/30 08:50:06;;;;;;;1.48;1.30;;;;;;;26.82;51.65;101004.22;4900888;29;20057;-85
2022/07/30 08:52:38;;;;;;;1.35;1.25;;;;;;;26.57;51.47;101005.97;4884415;29;20138;-83
2022/07/30 08:55:06;;;;;;;3.95;1.63;;;;;;;26.03;51.98;101012.34;4898825;29;20048;-86
2022/07/30 08:57:37;;;;;;;1.63;1.20;;;;;;;25.52;52.85;101007.72;4898274;29;20069;-86
2022/07/30 09:00:10;;;;;;;1.63;1.52;;;;;;;25.30;54.26;101021.66;4900115;29;20437;-84
2022/07/30 09:02:45;;;;;;;1.35;1.25;;;;;;;25.57;53.71;101019.84;4896628;29;20050;-86
2022/07/30 09:05:13;;;;;;;1.00;1.00;;;;;;;26.20;52.17;101019.25;4895681;29;20119;-85
2022/07/30 09:07:42;;;;;;;1.67;1.58;;;;;;;26.76;50.54;101028.84;4869455;29;20741;-86
2022/07/30 09:10:11;;;;;;;1.50;1.40;;;;;;;27.04;49.40;101027.72;4894371;29;20056;-86
2022/07/30 09:12:44;;;;;;;2.15;1.70;;;;;;;26.61;50.40;101028.94;4884682;29;20116;-86
2022/07/30 09:15:12;;;;;;;;;;;;;;;26.92;49.22;101029.44;4879301;29;20681;-84
2022/07/30 09:17:54;;;;;;;3.67;1.45;;;;;;;28.23;47.04;101038.53;4893595;29;19923;-85
2022/07/30 09:20:28;;;;;;;2.45;2.25;;;;;;;28.33;47.10;101037.81;4898820;29;20057;-84
2022/07/30 09:23:02;;;;;;;2.85;1.60;;;;;;;28.62;46.96;101043.63;4896528;29;20040;-86
2022/07/30 09:25:40;;;;;;;1.95;1.70;;;;;;;29.00;45.74;101036.16;4889931;29;20527;-84
2022/07/30 09:28:09;;;;;;;1.95;1.52;;;;;;;29.40;44.38;101048.22;4895976;29;20136;-84
2022/07/30 09:30:52;;;;;;;1.80;1.70;;;;;;;29.72;43.42;101052.78;4892129;29;20071;-84
2022/07/30 09:33:41;;;;;;;3.22;3.03;;;;;;;30.12;42.90;101039.50;4887907;29;20063;-85
2022/07/30 09:36:14;;;;;;;3.10;1.70;;;;;;;30.36;42.24;101052.72;4866038;29;20203;-85
2022/07/30 09:38:51;;;;;;;3.30;2.17;;;;;;;30.80;39.64;101049.81;4880370;29;20066;-87
2022/07/30 09:41:40;;;;;;;2.38;1.90;;;;;;;30.82;40.05;101052.38;4890092;29;20040;-83
2022/07/30 09:44:07;;;;;;;1.90;1.58;;;;;;;31.01;40.17;101057.84;4874209;29;20049;-84
2022/07/30 09:46:50;;;;;;;2.33;2.00;;;;;;;31.61;38.18;101057.03;4894369;29;20045;-91
2022/07/30 09:49:20;;;;;;;2.35;2.15;;;;;;;32.10;38.70;101057.00;4900969;29;20048;-85
2022/07/30 09:51:51;;;;;;;1.75;1.65;;;;;;;32.03;38.27;101055.03;4883322;29;20111;-85
2022/07/30 09:54:18;;;;;;;1.38;1.27;;;;;;;31.65;38.61;101057.59;4879535;29;20053;-92
2022/07/30 09:56:45;;;;;;;1.33;1.33;;;;;;;31.57;38.98;101060.16;4877070;29;20143;-83
2022/07/30 09:59:29;;;;;;;1.55;1.45;;;;;;;31.05;38.67;101060.31;4893100;29;20104;-84
2022/07/30 10:01:57;;;;;;;1.83;1.73;;;;;;;30.61;39.50;101053.31;4896560;29;20068;-89
2022/07/30 10:04:31;;;;;;;2.05;1.60;;;;;;;30.76;39.34;101048.38;4880389;29;20147;-84
2022/07/30 10:07:01;;;;;;;1.42;1.35;;;;;;;31.11;39.28;101054.38;4900613;29;20108;-86
2022/07/30 10:09:35;;;;;;;1.40;1.15;;;;;;;30.71;37.69;101049.78;4898297;29;20445;-85
2022/07/30 10:12:04;;;;;;;2.55;1.88;;;;;;;31.43;36.97;101045.16;4887880;29;20567;-83
2022/07/30 10:14:37;;;;;;;1.75;1.65;;;;;;;32.69;34.94;101046.03;4887274;29;20168;-85
2022/07/30 10:17:07;;;;;;;1.77;1.35;;;;;;;33.82;33.04;101055.81;4892230;29;20072;-84
2022/07/30 10:19:35;;;;;;;2.00;1.90;;;;;;;34.55;33.47;101055.50;4892704;29;20052;-85
2022/07/30 10:22:03;;;;;;;3.22;2.80;;;;;;;35.75;31.42;101054.56;4896521;29;20052;-84
2022/07/30 10:24:31;;;;;;;3.22;1.73;;;;;;;36.45;29.82;101057.75;4896194;29;20133;-85
2022/07/30 10:26:58;;;;;;;1.63;1.52;;;;;;;35.07;31.36;101059.16;4895691;29;20059;-85
2022/07/30 10:29:24;;;;;;;1.60;1.50;;;;;;;35.20;30.85;101055.97;4893867;29;20135;-86
2022/07/30 10:31:52;;;;;;;2.78;1.50;;;;;;;35.70;30.27;101055.06;4897698;29;20131;-84
2022/07/30 10:34:20;;;;;;;2.22;1.67;;;;;;;36.46;28.87;101054.00;4894309;29;20171;-84
2022/07/30 10:36:53;;;;;;;1.30;1.30;;;;;;;36.80;28.15;101047.41;4881187;29;20048;-85
2022/07/30 10:39:29;;;;;;;2.03;1.42;;;;;;;37.53;26.97;101056.25;4881038;29;20526;-85
2022/07/30 10:42:06;;;;;;;3.45;1.98;;;;;;;38.43;26.19;101049.16;4881581;29;20420;-85
2022/07/30 10:44:48;;;;;;;1.98;1.40;;;;;;;38.77;24.90;101055.13;4893825;29;20052;-89
2022/07/30 10:47:18;;;;;;;1.55;1.50;;;;;;;38.92;24.56;101045.00;4893092;29;20063;-87
2022/07/30 10:50:13;;;;;;;2.08;1.40;;;;;;;38.19;25.04;101053.81;4881496;29;20037;-86
2022/07/30 10:53:06;;;;;;;2.80;1.67;;;;;;;37.35;25.16;101046.50;4893006;29;20075;-83
2022/07/30 10:55:34;;;;;;;1.50;1.40;;;;;;;37.53;24.94;101046.16;4892497;29;20048;-87
2022/07/30 10:58:08;;;;;;;1.30;1.20;;;;;;;37.96;25.20;101044.84;4881337;29;20052;-85
2022/07/30 11:00:51;;;;;;;1.35;1.25;;;;;;;38.55;24.59;101038.59;4893674;29;20123;-90
2022/07/30 11:03:25;;;;;;;2.15;1.50;;;;;;;39.39;23.66;101040.06;4891713;29;20059;-90
2022/07/30 11:06:15;;;;;;;3.90;1.50;;;;;;;39.34;22.82;101046.13;4893948;29;20044;-87
2022/07/30 11:08:44;;;;;;;1.65;1.55;;;;;;;38.96;23.88;101045.47;4891282;29;20048;-89
2022/07/30 11:11:23;;;;;;;1.90;1.77;;;;;;;39.52;22.24;101050.31;4866135;29;20104;-86
2022/07/30 11:14:02;;;;;;;1.23;1.13;;;;;;;38.71;22.82;101048.50;4890812;29;20920;-84
2022/07/30 11:16:33;;;;;;;1.75;1.65;;;;;;;37.77;23.88;101049.75;4894848;29;20052;-85
2022/07/30 11:19:07;;;;;;;1.95;1.38;;;;;;;37.86;24.28;101051.41;4890744;29;20048;-88
2022/07/30 11:21:34;;;;;;;1.70;1.27;;;;;;;38.66;22.84;101049.06;4888122;29;20095;-89
2022/07/30 11:24:02;;;;;;;1.65;1.55;;;;;;;38.95;23.20;101054.72;4884891;29;20049;-86
2022/07/30 11:26:50;;;;;;;1.13;1.13;;;;;;;39.17;22.79;101048.22;4893924;29;20080;-83
2022/07/30 11:29:51;;;;;;;1.77;1.67;;;;;;;39.53;22.18;101044.63;4895350;29;20411;-87
2022/07/30 11:32:31;;;;;;;1.60;1.58;;;;;;;39.64;22.03;101048.75;4883719;29;20104;-85
2022/07/30 11:35:23;;;;;;;2.30;2.17;;;;;;;39.10;22.63;101041.84;4879363;29;20409;-88
2022/07/30 11:38:14;;;;;;;2.90;2.28;;;;;;;40.03;22.28;101050.13;4894221;29;20040;-84
2022/07/30 11:40:47;;;;;;;2.63;1.73;;;;;;;40.56;21.76;101051.59;4903397;29;20037;-86
2022/07/30 11:43:24;;;;;;;2.65;1.40;;;;;;;40.45;21.48;101052.13;4892996;29;20048;-86
2022/07/30 11:46:21;;;;;;;1.65;1.55;;;;;;;40.45;21.48;101049.38;4896243;29;20051;-85
2022/07/30 11:49:00;;;;;;;4.13;1.42;;;;;;;41.32;20.56;101036.88;4898202;29;20040;-88